Coderre, Canada
Current Conditions -  °F | °C
As of 12:00 PM on Sunday 21 Dec 2014 (Local Time) from CYYN Reporting Station
NA  
Wind Chill: 22°   Ceiling: NA
Heat Index: 32°   Visibility: 9mi
Dew Point: 25°   Wind: 14mph
Humidity: 75%   Direction: 190°S
Pressure: 29.24"   Gusts: NA
Location:  50.13°N, 106.38°W
Report Text: CYYN 211800Z AUTO 19012KT 9SM M00/M04 A2924 RMK CLD MISG SLP935
Loading
Personal Weather Stations






























Interactive Weather Map New forecast layout! Learn more

10-Day Weather Forecast

Advertisements
Track Severe Weather on mobile